createdAt,value
2023-02-27T00:01:40.769Z,13.05
2023-02-27T00:04:07.730Z,11.52
2023-02-27T00:06:34.601Z,12.38
2023-02-27T00:09:01.452Z,10.35
2023-02-27T00:11:28.740Z,11.10
2023-02-27T00:13:55.948Z,9.38
2023-02-27T00:16:22.825Z,10.80
2023-02-27T00:18:49.690Z,7.70
2023-02-27T00:21:16.757Z,6.35
2023-02-27T00:23:43.611Z,6.72
2023-02-27T00:26:10.417Z,6.90
2023-02-27T00:28:37.214Z,7.95
2023-02-27T00:31:04.864Z,10.02
2023-02-27T00:33:31.951Z,8.85
2023-02-27T00:36:01.659Z,8.45
2023-02-27T00:38:29.136Z,9.13
2023-02-27T00:40:56.007Z,6.32
2023-02-27T00:43:23.005Z,8.02
2023-02-27T00:45:49.868Z,10.05
2023-02-27T00:48:17.039Z,10.93
2023-02-27T00:50:44.315Z,7.03
2023-02-27T00:53:11.372Z,7.47
2023-02-27T00:55:38.224Z,6.10
2023-02-27T00:58:05.030Z,6.30
2023-02-27T01:00:31.888Z,8.77
2023-02-27T01:02:58.791Z,8.07
2023-02-27T01:05:26.234Z,6.97
2023-02-27T01:07:54.037Z,6.80
2023-02-27T01:10:21.276Z,7.50
2023-02-27T01:12:48.146Z,7.40
2023-02-27T01:15:15.135Z,7.10
2023-02-27T01:17:42.297Z,11.02
2023-02-27T01:20:11.976Z,9.95
2023-02-27T01:22:38.907Z,9.48
2023-02-27T01:25:06.913Z,8.55
2023-02-27T01:27:34.094Z,6.50
2023-02-27T01:30:01.038Z,11.45
2023-02-27T01:32:28.117Z,8.07
2023-02-27T01:34:55.078Z,11.73
2023-02-27T01:37:21.938Z,7.57
2023-02-27T01:39:48.865Z,12.13
2023-02-27T01:42:28.375Z,11.63
2023-02-27T01:45:32.185Z,7.80
2023-02-27T01:48:23.155Z,8.07
2023-02-27T01:50:58.825Z,9.15
2023-02-27T01:53:28.800Z,8.23
2023-02-27T01:56:11.308Z,6.60
2023-02-27T01:58:39.266Z,5.95
2023-02-27T02:01:06.806Z,6.60
2023-02-27T02:03:48.152Z,5.57
2023-02-27T02:06:14.966Z,7.75
2023-02-27T02:08:47.102Z,7.05
2023-02-27T02:11:18.427Z,5.43
2023-02-27T02:13:45.527Z,7.40
2023-02-27T02:16:49.181Z,6.13
2023-02-27T02:19:49.115Z,7.45
2023-02-27T02:22:27.676Z,7.45
2023-02-27T02:25:25.236Z,8.55
2023-02-27T02:28:49.634Z,6.70
2023-02-27T02:32:11.886Z,6.93
2023-02-27T02:35:09.512Z,6.32
2023-02-27T02:38:03.895Z,5.65
2023-02-27T02:40:55.719Z,6.97
2023-02-27T02:43:40.251Z,8.02
2023-02-27T02:46:40.576Z,6.65
2023-02-27T02:49:39.830Z,6.82
2023-02-27T02:52:47.768Z,8.38
2023-02-27T02:55:37.737Z,7.57
2023-02-27T02:58:24.946Z,8.50
2023-02-27T03:01:25.258Z,10.15
2023-02-27T03:04:03.431Z,10.05
2023-02-27T03:06:36.942Z,9.25
2023-02-27T03:09:17.824Z,11.88
2023-02-27T03:11:49.098Z,10.90
2023-02-27T03:14:31.628Z,7.28
2023-02-27T03:17:06.809Z,12.75
2023-02-27T03:19:57.591Z,11.10
2023-02-27T03:22:50.766Z,9.73
2023-02-27T03:25:18.389Z,10.05
2023-02-27T03:27:55.839Z,8.30
2023-02-27T03:30:44.859Z,11.15
2023-02-27T03:33:23.864Z,9.82
2023-02-27T03:36:05.004Z,9.55
2023-02-27T03:38:51.240Z,8.95
2023-02-27T03:42:14.796Z,7.50
2023-02-27T03:45:14.031Z,7.45
2023-02-27T03:47:41.102Z,7.90
2023-02-27T03:50:09.555Z,11.85
2023-02-27T03:52:36.622Z,6.70
2023-02-27T03:55:26.459Z,7.45
2023-02-27T03:57:54.072Z,9.98
2023-02-27T04:00:24.741Z,8.73
2023-02-27T04:02:56.044Z,11.40
2023-02-27T04:05:23.957Z,10.18
2023-02-27T04:08:18.055Z,8.88
2023-02-27T04:11:13.650Z,8.23
2023-02-27T04:13:49.249Z,7.40
2023-02-27T04:16:49.942Z,8.38
2023-02-27T04:19:35.349Z,8.18
2023-02-27T04:22:31.815Z,8.88
2023-02-27T04:25:58.100Z,8.82
2023-02-27T04:28:56.554Z,10.32
2023-02-27T04:31:41.413Z,9.90
2023-02-27T04:34:20.471Z,8.38
2023-02-27T04:36:56.220Z,9.25
2023-02-27T04:39:36.958Z,9.07
2023-02-27T04:42:18.650Z,8.57
2023-02-27T04:44:49.103Z,9.55
2023-02-27T04:47:19.095Z,9.77
2023-02-27T04:49:58.723Z,9.13
2023-02-27T04:52:37.975Z,10.63
2023-02-27T04:55:14.243Z,12.48
2023-02-27T04:58:07.781Z,8.20
2023-02-27T05:00:39.858Z,8.10
2023-02-27T05:03:19.560Z,8.93
2023-02-27T05:05:50.599Z,8.88
2023-02-27T05:08:30.433Z,10.10
2023-02-27T05:11:06.025Z,10.60
2023-02-27T05:13:43.465Z,13.32
2023-02-27T05:16:20.185Z,14.88
2023-02-27T05:18:48.234Z,13.45
2023-02-27T05:21:58.701Z,12.65
2023-02-27T05:24:53.976Z,12.68
2023-02-27T05:27:35.118Z,16.63
2023-02-27T05:30:54.078Z,12.63
2023-02-27T05:33:39.042Z,13.02
2023-02-27T05:36:14.011Z,13.95
2023-02-27T05:38:48.770Z,9.52
2023-02-27T05:41:48.210Z,9.45
2023-02-27T05:44:25.393Z,9.75
2023-02-27T05:47:04.173Z,8.90
2023-02-27T05:50:15.005Z,9.65
2023-02-27T05:52:44.788Z,7.72
2023-02-27T05:55:27.203Z,7.20
2023-02-27T05:58:06.463Z,5.97
2023-02-27T06:00:59.240Z,8.02
2023-02-27T06:03:29.305Z,7.63
2023-02-27T06:06:00.493Z,11.70
2023-02-27T06:08:27.725Z,8.80
2023-02-27T06:10:55.269Z,7.80
2023-02-27T06:13:24.127Z,9.43
2023-02-27T06:15:51.008Z,10.25
2023-02-27T06:18:19.089Z,9.43
2023-02-27T06:20:47.347Z,11.38
2023-02-27T06:23:14.424Z,15.52
2023-02-27T06:25:44.353Z,14.95
2023-02-27T06:28:11.934Z,13.30
2023-02-27T06:30:38.921Z,19.70
2023-02-27T06:33:05.998Z,15.27
2023-02-27T06:35:33.122Z,16.52
2023-02-27T06:38:03.029Z,14.32
2023-02-27T06:40:29.859Z,17.33
2023-02-27T06:42:56.875Z,14.60
2023-02-27T06:45:24.364Z,16.40
2023-02-27T06:47:51.202Z,21.73
2023-02-27T06:50:18.139Z,16.67
2023-02-27T06:52:44.994Z,13.40
2023-02-27T06:55:12.085Z,12.52
2023-02-27T06:57:39.038Z,10.35
2023-02-27T07:00:07.327Z,10.77
2023-02-27T07:02:34.210Z,13.23
2023-02-27T07:05:01.150Z,18.95
2023-02-27T07:07:37.926Z,17.58
2023-02-27T07:10:11.704Z,21.27
2023-02-27T07:12:40.220Z,16.00
2023-02-27T07:15:09.054Z,17.48
2023-02-27T07:17:36.616Z,21.08
2023-02-27T07:20:05.633Z,17.02
2023-02-27T07:22:32.601Z,17.92
2023-02-27T07:24:59.597Z,14.00
2023-02-27T07:27:26.701Z,14.32
2023-02-27T07:29:54.004Z,15.90
2023-02-27T07:32:21.152Z,14.52
2023-02-27T07:34:48.141Z,15.75
2023-02-27T07:37:15.080Z,14.27
2023-02-27T07:39:41.993Z,17.02
2023-02-27T07:42:08.886Z,14.90
2023-02-27T07:44:35.793Z,15.35
2023-02-27T07:47:02.762Z,16.08
2023-02-27T07:49:29.713Z,16.60
2023-02-27T07:51:56.650Z,15.95
2023-02-27T07:54:23.450Z,14.82
2023-02-27T07:56:50.392Z,14.82
2023-02-27T07:59:17.260Z,13.95
2023-02-27T08:01:44.109Z,14.60
2023-02-27T08:04:11.115Z,16.50
2023-02-27T08:06:37.985Z,14.40
2023-02-27T08:09:05.736Z,20.13
2023-02-27T08:11:32.641Z,22.55
2023-02-27T08:14:01.287Z,23.10
2023-02-27T08:16:30.802Z,22.13
2023-02-27T08:18:58.469Z,24.70
2023-02-27T08:21:26.451Z,22.88
2023-02-27T08:23:54.415Z,19.10
2023-02-27T08:26:21.785Z,22.75
2023-02-27T08:28:48.849Z,21.00
2023-02-27T08:31:16.088Z,28.90
2023-02-27T08:33:42.949Z,18.85
2023-02-27T08:36:10.184Z,15.40
2023-02-27T08:38:37.081Z,17.08
2023-02-27T08:41:04.508Z,20.83
2023-02-27T08:43:32.595Z,22.42
2023-02-27T08:45:59.493Z,30.40
2023-02-27T08:48:27.567Z,21.15
2023-02-27T08:50:56.722Z,16.92
2023-02-27T08:53:25.910Z,23.52
2023-02-27T08:55:53.436Z,12.43
2023-02-27T08:58:20.495Z,10.65
2023-02-27T09:00:47.814Z,13.27
2023-02-27T09:03:14.994Z,19.35
2023-02-27T09:05:42.592Z,13.38
2023-02-27T09:08:09.700Z,11.60
2023-02-27T09:10:36.674Z,17.77
2023-02-27T09:13:03.883Z,16.50
2023-02-27T09:15:32.538Z,34.58
2023-02-27T09:18:03.031Z,21.98
2023-02-27T09:20:35.811Z,20.15
2023-02-27T09:23:04.299Z,34.35
2023-02-27T09:25:31.705Z,25.02
2023-02-27T09:27:58.647Z,10.93
2023-02-27T09:30:25.623Z,7.80
2023-02-27T09:32:52.693Z,11.52
2023-02-27T09:35:22.695Z,6.55
2023-02-27T09:37:49.679Z,12.55
2023-02-27T09:40:25.666Z,8.25
2023-02-27T09:42:58.196Z,6.32
2023-02-27T09:45:29.973Z,7.03
2023-02-27T09:48:12.154Z,9.98
2023-02-27T09:50:53.301Z,9.88
2023-02-27T09:53:47.567Z,8.63
2023-02-27T09:56:14.296Z,6.43
2023-02-27T09:58:43.851Z,7.57
2023-02-27T10:01:27.615Z,6.38
2023-02-27T10:04:05.079Z,7.75
2023-02-27T10:06:51.841Z,6.35
2023-02-27T10:09:59.247Z,8.52
2023-02-27T10:12:35.015Z,7.72
2023-02-27T10:15:14.360Z,6.70
2023-02-27T10:17:51.159Z,7.60
2023-02-27T10:20:28.764Z,10.73
2023-02-27T10:23:01.439Z,4.97
2023-02-27T10:25:32.074Z,7.90
2023-02-27T10:28:21.555Z,7.55
2023-02-27T10:30:53.536Z,8.68
2023-02-27T10:33:44.145Z,6.27
2023-02-27T10:36:20.751Z,9.88
2023-02-27T10:39:00.736Z,7.15
2023-02-27T10:41:29.300Z,7.35
2023-02-27T10:44:00.065Z,5.75
2023-02-27T10:46:38.059Z,6.05
2023-02-27T10:49:21.556Z,5.95
2023-02-27T10:52:10.942Z,6.72
2023-02-27T10:54:39.755Z,6.97
2023-02-27T10:57:30.487Z,5.70
2023-02-27T11:00:09.630Z,5.85
2023-02-27T11:02:42.219Z,8.52
2023-02-27T11:05:34.470Z,7.53
2023-02-27T11:08:26.688Z,8.45
2023-02-27T11:11:09.457Z,10.98
2023-02-27T11:13:43.438Z,6.53
2023-02-27T11:16:23.038Z,6.22
2023-02-27T11:18:52.474Z,7.22
2023-02-27T11:21:28.877Z,8.38
2023-02-27T11:24:03.205Z,5.18
2023-02-27T11:26:38.701Z,4.65
2023-02-27T11:29:11.625Z,5.30
2023-02-27T11:34:20.902Z,8.05
2023-02-27T11:36:50.222Z,4.70
2023-02-27T11:39:47.456Z,6.03
2023-02-27T11:42:34.594Z,5.30
2023-02-27T11:46:12.746Z,5.63
2023-02-27T11:48:48.361Z,5.97
2023-02-27T11:51:27.879Z,4.72
2023-02-27T11:54:07.104Z,7.47
2023-02-27T11:56:47.278Z,6.32
2023-02-27T11:59:47.118Z,6.00
2023-02-27T12:02:39.407Z,3.88
2023-02-27T12:05:26.326Z,5.53
2023-02-27T12:08:11.204Z,3.63
2023-02-27T12:11:13.920Z,6.05
2023-02-27T12:13:49.384Z,5.28
2023-02-27T12:16:32.899Z,6.47
2023-02-27T12:19:13.860Z,3.70
2023-02-27T12:21:49.595Z,9.80
2023-02-27T12:24:38.206Z,8.00
2023-02-27T12:27:29.237Z,27.98
2023-02-27T12:30:21.037Z,16.00
2023-02-27T12:33:09.527Z,29.15
2023-02-27T12:35:36.552Z,13.43
2023-02-27T12:38:04.849Z,11.73
2023-02-27T12:40:41.953Z,6.15
2023-02-27T12:43:48.965Z,4.03
2023-02-27T12:46:29.547Z,4.85
2023-02-27T12:49:34.925Z,9.88
2023-02-27T12:52:32.088Z,4.53
2023-02-27T12:55:42.450Z,7.20
2023-02-27T12:58:59.030Z,15.88
2023-02-27T13:01:59.697Z,7.07
2023-02-27T13:05:16.524Z,24.15
2023-02-27T13:08:01.327Z,37.97
2023-02-27T13:10:50.797Z,49.90
2023-02-27T13:13:38.836Z,9.70
2023-02-27T13:16:29.175Z,19.38
2023-02-27T13:19:13.556Z,10.30
2023-02-27T13:21:51.268Z,7.40
2023-02-27T13:24:30.272Z,11.40
2023-02-27T13:27:18.584Z,7.82
2023-02-27T13:30:01.321Z,3.22
2023-02-27T13:32:50.389Z,3.72
2023-02-27T13:35:37.960Z,6.40
2023-02-27T13:38:43.531Z,5.82
2023-02-27T13:41:25.064Z,5.38
2023-02-27T13:44:15.803Z,5.03
2023-02-27T13:46:42.696Z,6.20
2023-02-27T13:49:28.156Z,8.52
2023-02-27T13:51:58.641Z,11.18
2023-02-27T13:54:40.470Z,7.53
2023-02-27T13:57:19.740Z,8.80
2023-02-27T13:59:59.153Z,10.85
2023-02-27T14:02:40.264Z,10.57
2023-02-27T14:05:16.709Z,5.15
2023-02-27T14:08:05.749Z,6.88
2023-02-27T14:10:35.529Z,4.25
2023-02-27T14:13:03.801Z,6.95
2023-02-27T14:15:34.419Z,6.93
2023-02-27T14:18:16.012Z,6.30
2023-02-27T14:20:51.430Z,6.65
2023-02-27T14:23:26.454Z,5.88
2023-02-27T14:26:08.262Z,7.60
2023-02-27T14:28:48.387Z,10.80
2023-02-27T14:31:30.731Z,11.43
2023-02-27T14:34:05.214Z,6.43
2023-02-27T14:36:51.474Z,7.97
2023-02-27T14:39:35.719Z,8.48
2023-02-27T14:42:32.852Z,10.45
2023-02-27T14:45:00.162Z,9.55
2023-02-27T14:47:35.801Z,7.20
2023-02-27T14:50:23.047Z,8.57
2023-02-27T14:52:50.024Z,8.95
2023-02-27T14:55:27.978Z,7.75
2023-02-27T14:57:55.734Z,10.52
2023-02-27T15:00:41.837Z,10.93
2023-02-27T15:03:21.866Z,16.05
2023-02-27T15:05:52.523Z,10.35
2023-02-27T15:08:32.262Z,11.77
2023-02-27T15:11:00.607Z,14.13
2023-02-27T15:13:39.182Z,14.18
2023-02-27T15:16:28.957Z,22.30
2023-02-27T15:19:05.866Z,19.13
2023-02-27T15:21:42.792Z,17.25
2023-02-27T15:24:40.626Z,10.77
2023-02-27T15:27:24.698Z,11.93
2023-02-27T15:30:00.294Z,11.40
2023-02-27T15:32:41.778Z,17.15
2023-02-27T15:35:27.816Z,16.52
2023-02-27T15:37:59.429Z,13.73
2023-02-27T15:40:30.363Z,18.35
2023-02-27T15:43:00.141Z,18.60
2023-02-27T15:45:40.119Z,19.48
2023-02-27T15:48:07.427Z,15.13
2023-02-27T15:50:38.277Z,14.68
2023-02-27T15:53:08.156Z,11.43
2023-02-27T15:55:40.742Z,12.43
2023-02-27T15:58:22.183Z,11.15
2023-02-27T16:01:00.624Z,11.57
2023-02-27T16:03:37.764Z,15.75
2023-02-27T16:06:16.398Z,18.60
2023-02-27T16:08:55.705Z,19.30
2023-02-27T16:11:26.295Z,18.95
2023-02-27T16:13:54.586Z,45.60
2023-02-27T16:16:36.000Z,48.63
2023-02-27T16:19:28.530Z,43.33
2023-02-27T16:22:18.028Z,38.03
2023-02-27T16:24:45.970Z,36.33
2023-02-27T16:27:31.868Z,38.60
2023-02-27T16:30:02.431Z,30.83
2023-02-27T16:32:34.708Z,16.73
2023-02-27T16:35:23.514Z,17.38
2023-02-27T16:37:51.401Z,19.23
2023-02-27T16:40:25.757Z,19.85
2023-02-27T16:42:53.724Z,22.80
2023-02-27T16:45:27.580Z,27.35
2023-02-27T16:47:58.954Z,24.73
2023-02-27T16:50:40.701Z,32.97
2023-02-27T16:53:08.081Z,27.52
2023-02-27T16:55:39.633Z,26.25
2023-02-27T16:58:06.928Z,36.45
2023-02-27T17:00:39.862Z,31.35
2023-02-27T17:05:35.472Z,31.58
2023-02-27T17:08:02.398Z,27.77
2023-02-27T17:10:29.299Z,46.33
2023-02-27T17:12:56.206Z,30.88
2023-02-27T17:15:23.024Z,46.10
2023-02-27T17:17:50.000Z,43.10
2023-02-27T17:20:16.937Z,382.10
2023-02-27T17:22:45.061Z,358.83
2023-02-27T17:25:13.649Z,212.82
2023-02-27T17:27:43.535Z,84.43
2023-02-27T17:30:11.868Z,59.30
2023-02-27T17:32:39.160Z,37.47
2023-02-27T17:35:06.576Z,33.70
2023-02-27T17:37:33.486Z,40.08
2023-02-27T17:40:04.105Z,35.72
2023-02-27T17:42:32.569Z,32.17
2023-02-27T17:45:01.395Z,29.75
2023-02-27T17:47:28.322Z,30.15
2023-02-27T17:49:55.271Z,31.33
2023-02-27T17:52:22.229Z,28.48
2023-02-27T17:54:49.371Z,28.60
2023-02-27T17:57:17.145Z,49.05
2023-02-27T17:59:43.958Z,58.83
2023-02-27T18:02:15.473Z,55.20
2023-02-27T18:04:42.767Z,74.45
2023-02-27T18:07:09.713Z,80.15
2023-02-27T18:09:36.695Z,79.13
2023-02-27T18:12:03.794Z,56.28
2023-02-27T18:14:30.790Z,38.40
2023-02-27T18:16:58.728Z,50.47
2023-02-27T18:19:26.905Z,101.90
2023-02-27T18:21:53.846Z,87.60
2023-02-27T18:24:21.532Z,50.88
2023-02-27T18:26:48.432Z,45.90
2023-02-27T18:29:16.230Z,49.25
2023-02-27T18:31:46.495Z,55.83
2023-02-27T18:34:13.896Z,65.50
2023-02-27T18:36:40.992Z,53.63
2023-02-27T18:39:08.628Z,81.00
2023-02-27T18:41:36.778Z,109.38
2023-02-27T18:44:06.129Z,139.43
2023-02-27T18:46:34.907Z,105.22
2023-02-27T18:49:01.820Z,60.40
2023-02-27T18:51:28.785Z,44.33
2023-02-27T18:53:57.012Z,51.67
2023-02-27T18:56:26.979Z,58.00
2023-02-27T18:58:58.325Z,68.65
2023-02-27T19:01:32.817Z,86.15
2023-02-27T19:04:05.090Z,98.38
2023-02-27T19:06:42.092Z,96.95
2023-02-27T19:09:12.669Z,108.00
2023-02-27T19:11:45.261Z,99.65
2023-02-27T19:14:15.920Z,98.28
2023-02-27T19:16:44.273Z,108.32
2023-02-27T19:19:12.366Z,119.28
2023-02-27T19:21:40.358Z,110.18
2023-02-27T19:24:10.300Z,112.07
2023-02-27T19:26:37.327Z,102.43
2023-02-27T19:29:06.640Z,87.97
2023-02-27T19:31:34.444Z,54.85
2023-02-27T19:34:01.965Z,54.10
2023-02-27T19:36:35.114Z,58.80
2023-02-27T19:39:03.796Z,62.80
2023-02-27T19:41:33.441Z,57.80
2023-02-27T19:44:02.927Z,58.92
2023-02-27T19:46:34.295Z,58.78
2023-02-27T19:49:08.259Z,59.33
2023-02-27T19:51:35.294Z,70.22
2023-02-27T19:54:02.242Z,98.63
2023-02-27T19:56:30.068Z,94.97
2023-02-27T19:58:57.808Z,110.32
2023-02-27T20:01:29.649Z,103.53
2023-02-27T20:03:57.098Z,108.55
2023-02-27T20:06:28.151Z,119.93
2023-02-27T20:08:57.194Z,119.55
2023-02-27T20:11:28.383Z,131.27
2023-02-27T20:13:57.474Z,122.72
2023-02-27T20:16:27.867Z,132.65
2023-02-27T20:18:57.965Z,147.65
2023-02-27T20:21:28.352Z,155.15
2023-02-27T20:23:55.875Z,150.93
2023-02-27T20:26:35.275Z,150.45
2023-02-27T20:29:09.929Z,150.07
2023-02-27T20:31:39.501Z,153.15
2023-02-27T20:34:08.027Z,154.73
2023-02-27T20:36:35.655Z,132.98
2023-02-27T20:39:03.988Z,118.50
2023-02-27T20:41:33.075Z,118.70
2023-02-27T20:44:01.176Z,136.25
2023-02-27T20:46:30.761Z,124.50
2023-02-27T20:49:04.046Z,137.35
2023-02-27T20:51:35.953Z,135.38
2023-02-27T20:54:07.105Z,146.73
2023-02-27T20:56:39.841Z,160.02
2023-02-27T20:59:15.928Z,168.07
2023-02-27T21:01:51.618Z,166.52
2023-02-27T21:04:42.055Z,157.05
2023-02-27T21:07:14.903Z,153.32
2023-02-27T21:09:42.069Z,188.43
2023-02-27T21:12:09.588Z,181.05
2023-02-27T21:14:37.218Z,173.18
2023-02-27T21:17:05.525Z,166.85
2023-02-27T21:19:32.361Z,152.38
2023-02-27T21:21:59.392Z,146.73
2023-02-27T21:24:26.247Z,130.68
2023-02-27T21:26:53.170Z,121.40
2023-02-27T21:29:21.778Z,114.95
2023-02-27T21:31:52.442Z,114.22
2023-02-27T21:34:28.292Z,122.13
2023-02-27T21:36:55.491Z,156.75
2023-02-27T21:39:28.319Z,195.55
2023-02-27T21:41:55.402Z,199.35
2023-02-27T21:44:27.332Z,181.95
2023-02-27T21:46:55.668Z,173.10
2023-02-27T21:49:31.107Z,155.57
2023-02-27T21:51:57.905Z,147.25
2023-02-27T21:54:24.944Z,142.77
2023-02-27T21:56:51.979Z,139.35
2023-02-27T21:59:20.124Z,139.25
2023-02-27T22:01:48.261Z,132.57
2023-02-27T22:04:17.626Z,131.55
2023-02-27T22:06:44.858Z,135.68
2023-02-27T22:09:11.812Z,126.40
2023-02-27T22:11:40.805Z,125.03
2023-02-27T22:14:09.922Z,123.85
2023-02-27T22:16:37.596Z,122.70
2023-02-27T22:19:09.621Z,121.18
2023-02-27T22:21:38.012Z,122.35
2023-02-27T22:24:06.528Z,119.95
2023-02-27T22:26:34.022Z,105.68
2023-02-27T22:29:00.981Z,103.15
2023-02-27T22:31:33.494Z,110.82
2023-02-27T22:36:49.663Z,97.85
2023-02-27T22:39:16.635Z,96.38
2023-02-27T22:41:43.593Z,91.63
2023-02-27T22:44:14.371Z,91.85
2023-02-27T22:46:47.020Z,97.75
2023-02-27T22:49:23.129Z,100.43
2023-02-27T22:51:52.327Z,101.00
2023-02-27T22:54:22.538Z,101.15
2023-02-27T22:56:51.809Z,114.72
2023-02-27T22:59:19.327Z,94.85
2023-02-27T23:01:48.060Z,87.57
2023-02-27T23:04:17.122Z,89.68
2023-02-27T23:06:44.920Z,95.40
2023-02-27T23:09:19.873Z,91.80
2023-02-27T23:11:46.990Z,98.88
2023-02-27T23:14:14.992Z,105.78
2023-02-27T23:16:45.822Z,114.28
2023-02-27T23:19:18.960Z,110.78
2023-02-27T23:21:45.842Z,123.63
2023-02-27T23:24:16.766Z,111.18
2023-02-27T23:26:47.899Z,111.85
2023-02-27T23:29:15.395Z,111.20
2023-02-27T23:31:42.454Z,116.75
2023-02-27T23:34:10.248Z,108.30
2023-02-27T23:36:39.066Z,116.22
2023-02-27T23:39:07.890Z,114.20
2023-02-27T23:41:35.048Z,116.40
2023-02-27T23:44:03.546Z,105.65
2023-02-27T23:46:30.954Z,91.30
2023-02-27T23:48:59.580Z,94.70
2023-02-27T23:51:29.069Z,74.15
2023-02-27T23:53:57.097Z,86.53
2023-02-27T23:56:28.535Z,86.13
2023-02-27T23:59:00.386Z,84.22
